createdAt,value
2018-08-11T00:00:43.808Z,17.78
2018-08-11T00:01:53.388Z,17.77
2018-08-11T00:03:03.232Z,17.82
2018-08-11T00:04:12.533Z,17.74
2018-08-11T00:05:22.649Z,17.77
2018-08-11T00:06:32.492Z,17.77
2018-08-11T00:07:42.331Z,17.79
2018-08-11T00:08:51.635Z,17.78
2018-08-11T00:10:01.218Z,17.86
2018-08-11T00:11:10.793Z,17.89
2018-08-11T00:12:20.645Z,17.92
2018-08-11T00:13:30.213Z,17.95
2018-08-11T00:14:39.790Z,17.84
2018-08-11T00:15:49.095Z,17.86
2018-08-11T00:16:59.211Z,17.87
2018-08-11T00:18:09.053Z,17.92
2018-08-11T00:19:18.906Z,17.89
2018-08-11T00:20:29.014Z,17.86
2018-08-11T00:21:38.585Z,17.92
2018-08-11T00:22:47.891Z,17.95
2018-08-11T00:23:57.997Z,17.86
2018-08-11T00:25:08.116Z,17.89
2018-08-11T00:26:17.688Z,17.93
2018-08-11T00:27:27.806Z,17.92
2018-08-11T00:28:37.914Z,17.93
2018-08-11T00:29:47.762Z,17.87
2018-08-11T00:30:57.074Z,17.87
2018-08-11T00:32:06.649Z,17.89
2018-08-11T00:33:16.226Z,17.9
2018-08-11T00:34:25.850Z,17.87
2018-08-11T00:35:35.738Z,17.84
2018-08-11T00:36:45.580Z,17.82
2018-08-11T00:37:55.157Z,17.89
2018-08-11T00:39:05.003Z,17.87
2018-08-11T00:40:14.857Z,17.9
2018-08-11T00:41:24.431Z,17.89
2018-08-11T00:42:33.735Z,17.89
2018-08-11T00:43:43.318Z,17.9
2018-08-11T00:44:52.896Z,17.9
2018-08-11T00:46:02.787Z,17.89
2018-08-11T00:47:12.147Z,17.84
2018-08-11T00:48:21.984Z,17.86
2018-08-11T00:49:32.026Z,17.82
2018-08-11T00:50:41.991Z,17.89
2018-08-11T00:51:51.566Z,17.9
2018-08-11T00:53:01.413Z,17.87
2018-08-11T00:54:10.720Z,17.9
2018-08-11T00:55:20.025Z,17.87
2018-08-11T00:56:29.873Z,17.87
2018-08-11T00:57:39.457Z,17.87
2018-08-11T00:58:49.570Z,17.89
2018-08-11T00:59:59.685Z,17.87
2018-08-11T01:01:09.260Z,17.93
2018-08-11T01:02:19.232Z,17.7
2018-08-11T01:03:29.596Z,17.79
2018-08-11T01:04:39.170Z,17.92
2018-08-11T01:05:48.472Z,17.77
2018-08-11T01:06:58.045Z,17.71
2018-08-11T01:08:07.961Z,17.66
2018-08-11T01:09:17.534Z,17.64
2018-08-11T01:10:27.381Z,17.58
2018-08-11T01:11:37.234Z,17.71
2018-08-11T01:12:47.079Z,17.81
2018-08-11T01:13:56.659Z,17.56
2018-08-11T01:15:06.497Z,17.62
2018-08-11T01:16:16.335Z,17.74
2018-08-11T01:17:26.183Z,17.62
2018-08-11T01:18:35.811Z,17.58
2018-08-11T01:19:45.666Z,17.54
2018-08-11T01:20:55.773Z,17.46
2018-08-11T01:22:05.642Z,17.26
2018-08-11T01:23:15.216Z,17.28
2018-08-11T01:24:24.803Z,17.23
2018-08-11T01:25:33.846Z,17.22
2018-08-11T01:26:43.684Z,17.22
2018-08-11T01:27:53.255Z,17.19
2018-08-11T01:29:02.830Z,17.16
2018-08-11T01:30:12.411Z,17.21
2018-08-11T01:31:21.985Z,17.06
2018-08-11T01:32:31.290Z,17.15
2018-08-11T01:33:40.866Z,17.11
2018-08-11T01:34:49.897Z,17.28
2018-08-11T01:36:00.010Z,17.06
2018-08-11T01:37:10.127Z,17.08
2018-08-11T01:38:20.236Z,16.97
2018-08-11T01:39:29.809Z,16.97
2018-08-11T01:40:39.112Z,16.86
2018-08-11T01:41:48.684Z,16.86
2018-08-11T01:42:58.797Z,16.93
2018-08-11T01:44:09.037Z,16.81
2018-08-11T01:45:19.279Z,16.79
2018-08-11T01:46:28.857Z,16.71
2018-08-11T01:47:38.165Z,16.76
2018-08-11T01:48:48.017Z,16.75
2018-08-11T01:49:57.898Z,16.68
2018-08-11T01:51:07.744Z,16.7
2018-08-11T01:52:17.047Z,16.68
2018-08-11T01:53:26.353Z,16.73
2018-08-11T01:54:36.191Z,16.66
2018-08-11T01:55:46.033Z,16.45
2018-08-11T01:56:55.341Z,16.57
2018-08-11T01:58:04.907Z,16.64
2018-08-11T01:59:14.758Z,16.68
2018-08-11T02:00:24.864Z,16.48
2018-08-11T02:01:34.735Z,16.49
2018-08-11T02:02:44.312Z,16.46
2018-08-11T02:03:53.891Z,16.48
2018-08-11T02:05:04.009Z,16.61
2018-08-11T02:06:13.857Z,16.68
2018-08-11T02:07:23.427Z,16.66
2018-08-11T02:08:33.001Z,16.49
2018-08-11T02:09:42.847Z,16.31
2018-08-11T02:10:52.696Z,16.38
2018-08-11T02:12:02.543Z,16.31
2018-08-11T02:13:12.386Z,16.31
2018-08-11T02:14:21.976Z,16.39
2018-08-11T02:15:31.831Z,16.2
2018-08-11T02:16:41.135Z,16.24
2018-08-11T02:17:50.769Z,16.21
2018-08-11T02:19:00.075Z,16.23
2018-08-11T02:20:09.920Z,16.34
2018-08-11T02:21:19.490Z,16.28
2018-08-11T02:22:29.333Z,16.39
2018-08-11T02:23:38.904Z,16.24
2018-08-11T02:24:49.001Z,16.15
2018-08-11T02:25:59.109Z,16.2
2018-08-11T02:27:08.684Z,16.23
2018-08-11T02:28:18.522Z,15.97
2018-08-11T02:29:28.149Z,15.92
2018-08-11T02:30:37.993Z,15.92
2018-08-11T02:31:48.112Z,15.9
2018-08-11T02:32:57.961Z,16.01
2018-08-11T02:34:07.568Z,16.04
2018-08-11T02:35:17.832Z,15.89
2018-08-11T02:36:27.420Z,16
2018-08-11T02:37:37.266Z,15.69
2018-08-11T02:38:47.121Z,15.49
2018-08-11T02:39:57.246Z,15.25
2018-08-11T02:41:06.823Z,15.13
2018-08-11T02:42:16.685Z,15.02
2018-08-11T02:43:26.794Z,14.89
2018-08-11T02:44:36.651Z,14.58
2018-08-11T02:45:46.493Z,14.72
2018-08-11T02:46:56.354Z,14.51
2018-08-11T02:48:06.208Z,14.52
2018-08-11T02:49:16.060Z,14.55
2018-08-11T02:50:25.643Z,14.5
2018-08-11T02:51:35.483Z,14.55
2018-08-11T02:52:45.075Z,14.51
2018-08-11T02:53:54.924Z,14.62
2018-08-11T02:55:04.777Z,14.43
2018-08-11T02:56:14.632Z,14.35
2018-08-11T02:57:24.211Z,14.33
2018-08-11T02:58:34.376Z,14.36
2018-08-11T02:59:44.235Z,14.21
2018-08-11T03:00:53.274Z,14.12
2018-08-11T03:02:02.856Z,14.22
2018-08-11T03:03:12.696Z,14
2018-08-11T03:04:22.314Z,14.07
2018-08-11T03:05:31.889Z,14.09
2018-08-11T03:06:41.729Z,14.07
2018-08-11T03:07:51.868Z,14.02
2018-08-11T03:09:01.442Z,13.96
2018-08-11T03:10:11.025Z,13.89
2018-08-11T03:11:20.880Z,13.95
2018-08-11T03:12:30.735Z,13.97
2018-08-11T03:13:40.854Z,14
2018-08-11T03:14:50.436Z,13.91
2018-08-11T03:16:00.277Z,13.95
2018-08-11T03:17:09.590Z,13.97
2018-08-11T03:18:19.165Z,14.03
2018-08-11T03:19:28.468Z,14.07
2018-08-11T03:20:37.769Z,13.97
2018-08-11T03:21:47.902Z,14.04
2018-08-11T03:22:58.033Z,13.96
2018-08-11T03:24:08.144Z,13.96
2018-08-11T03:25:17.716Z,13.97
2018-08-11T03:26:27.287Z,13.97
2018-08-11T03:27:37.158Z,14
2018-08-11T03:28:47.296Z,13.99
2018-08-11T03:29:57.147Z,14.12
2018-08-11T03:31:06.728Z,14
2018-08-11T03:32:16.848Z,14
2018-08-11T03:33:26.436Z,13.88
2018-08-11T03:34:36.012Z,13.92
2018-08-11T03:35:45.590Z,13.84
2018-08-11T03:36:55.154Z,13.81
2018-08-11T03:38:05.001Z,13.81
2018-08-11T03:39:14.855Z,13.71
2018-08-11T03:40:24.692Z,13.75
2018-08-11T03:41:33.996Z,13.77
2018-08-11T03:42:44.113Z,13.82
2018-08-11T03:43:53.960Z,13.79
2018-08-11T03:45:03.530Z,13.81
2018-08-11T03:46:13.921Z,13.78
2018-08-11T03:47:23.231Z,13.82
2018-08-11T03:48:32.805Z,13.73
2018-08-11T03:49:42.647Z,13.77
2018-08-11T03:50:51.944Z,13.73
2018-08-11T03:52:01.779Z,13.81
2018-08-11T03:53:11.628Z,13.81
2018-08-11T03:54:21.468Z,13.79
2018-08-11T03:55:30.770Z,13.79
2018-08-11T03:56:40.340Z,13.81
2018-08-11T03:57:50.181Z,13.82
2018-08-11T03:59:00.026Z,13.81
2018-08-11T04:00:09.333Z,13.7
2018-08-11T04:01:18.629Z,13.67
2018-08-11T04:02:27.935Z,13.51
2018-08-11T04:03:38.053Z,13.69
2018-08-11T04:04:48.159Z,13.64
2018-08-11T04:05:57.997Z,13.71
2018-08-11T04:07:07.566Z,13.59
2018-08-11T04:08:17.140Z,13.6
2018-08-11T04:09:26.993Z,13.59
2018-08-11T04:10:36.300Z,13.57
2018-08-11T04:11:46.416Z,13.57
2018-08-11T04:12:55.987Z,13.52
2018-08-11T04:14:05.552Z,13.49
2018-08-11T04:15:15.131Z,13.63
2018-08-11T04:16:25.253Z,13.59
2018-08-11T04:17:34.820Z,13.51
2018-08-11T04:18:44.392Z,13.46
2018-08-11T04:19:54.239Z,13.59
2018-08-11T04:21:03.545Z,13.55
2018-08-11T04:22:13.651Z,13.51
2018-08-11T04:23:23.512Z,13.49
2018-08-11T04:24:33.090Z,13.48
2018-08-11T04:25:42.938Z,13.48
2018-08-11T04:26:52.776Z,13.62
2018-08-11T04:28:02.619Z,13.54
2018-08-11T04:29:12.457Z,13.45
2018-08-11T04:30:21.763Z,13.52
2018-08-11T04:31:31.612Z,13.51
2018-08-11T04:32:41.180Z,13.54
2018-08-11T04:33:51.022Z,13.36
2018-08-11T04:35:00.599Z,13.6
2018-08-11T04:36:10.171Z,13.62
2018-08-11T04:37:19.200Z,13.51
2018-08-11T04:38:28.771Z,13.45
2018-08-11T04:39:38.884Z,13.48
2018-08-11T04:40:48.455Z,13.41
2018-08-11T04:41:58.101Z,13.45
2018-08-11T04:43:07.468Z,13.46
2018-08-11T04:44:17.042Z,13.46
2018-08-11T04:45:26.336Z,13.45
2018-08-11T04:46:35.905Z,13.46
2018-08-11T04:47:45.487Z,13.39
2018-08-11T04:48:54.788Z,13.3
2018-08-11T04:50:04.090Z,13.36
2018-08-11T04:51:13.981Z,13.26
2018-08-11T04:52:23.863Z,13.32
2018-08-11T04:53:33.455Z,13.32
2018-08-11T04:54:43.037Z,13.32
2018-08-11T04:55:53.163Z,13.38
2018-08-11T04:57:02.999Z,13.44
2018-08-11T04:58:12.322Z,13.46
2018-08-11T04:59:22.173Z,13.48
2018-08-11T05:00:31.475Z,13.46
2018-08-11T05:01:41.319Z,13.46
2018-08-11T05:02:51.428Z,13.38
2018-08-11T05:04:00.463Z,13.41
2018-08-11T05:05:10.303Z,13.32
2018-08-11T05:06:20.466Z,13.32
2018-08-11T05:07:30.045Z,13.45
2018-08-11T05:08:39.889Z,13.33
2018-08-11T05:09:49.460Z,13.3
2018-08-11T05:10:59.037Z,13.32
2018-08-11T05:12:08.613Z,13.32
2018-08-11T05:13:17.911Z,13.39
2018-08-11T05:14:27.479Z,13.33
2018-08-11T05:15:37.323Z,13.33
2018-08-11T05:16:46.892Z,13.42
2018-08-11T05:17:56.731Z,13.45
2018-08-11T05:19:06.308Z,13.49
2018-08-11T05:20:16.152Z,13.51
2018-08-11T05:21:25.452Z,13.33
2018-08-11T05:22:35.559Z,13.32
2018-08-11T05:23:45.404Z,13.41
2018-08-11T05:24:55.247Z,13.38
2018-08-11T05:26:04.279Z,13.45
2018-08-11T05:27:13.908Z,13.48
2018-08-11T05:28:23.480Z,13.46
2018-08-11T05:29:32.777Z,13.44
2018-08-11T05:30:42.352Z,13.45
2018-08-11T05:31:51.923Z,13.48
2018-08-11T05:33:01.781Z,13.46
2018-08-11T05:34:11.455Z,13.6
2018-08-11T05:35:21.299Z,13.49
2018-08-11T05:36:31.409Z,13.59
2018-08-11T05:37:41.257Z,13.49
2018-08-11T05:38:51.099Z,13.49
2018-08-11T05:40:01.220Z,13.54
2018-08-11T05:41:11.072Z,13.48
2018-08-11T05:42:20.654Z,13.48
2018-08-11T05:43:30.493Z,13.62
2018-08-11T05:44:40.072Z,13.39
2018-08-11T05:45:49.638Z,13.62
2018-08-11T05:46:59.208Z,13.62
2018-08-11T05:48:09.048Z,13.54
2018-08-11T05:49:18.621Z,13.57
2018-08-11T05:50:28.458Z,13.7
2018-08-11T05:51:38.301Z,13.63
2018-08-11T05:52:47.870Z,13.63
2018-08-11T05:53:57.981Z,13.7
2018-08-11T05:55:08.217Z,13.78
2018-08-11T05:56:18.431Z,13.64
2018-08-11T05:57:28.543Z,13.66
2018-08-11T05:58:37.846Z,13.7
2018-08-11T05:59:47.424Z,13.66
2018-08-11T06:00:57.300Z,13.67
2018-08-11T06:02:06.608Z,13.69
2018-08-11T06:03:16.720Z,13.7
2018-08-11T06:04:26.580Z,13.77
2018-08-11T06:05:36.423Z,13.81
2018-08-11T06:06:45.449Z,13.82
2018-08-11T06:07:55.293Z,13.89
2018-08-11T06:09:04.876Z,13.91
2018-08-11T06:10:14.769Z,13.92
2018-08-11T06:11:24.632Z,13.91
2018-08-11T06:12:33.939Z,13.99
2018-08-11T06:13:43.237Z,13.99
2018-08-11T06:14:53.346Z,13.92
2018-08-11T06:16:03.458Z,13.89
2018-08-11T06:17:13.036Z,14
2018-08-11T06:18:23.151Z,13.99
2018-08-11T06:19:32.181Z,14.03
2018-08-11T06:20:41.754Z,14.02
2018-08-11T06:21:51.603Z,14.02
2018-08-11T06:23:01.437Z,14.12
2018-08-11T06:24:11.008Z,14.14
2018-08-11T06:25:20.579Z,14.14
2018-08-11T06:26:30.689Z,14.25
2018-08-11T06:27:40.040Z,14.25
2018-08-11T06:28:49.883Z,14.4
2018-08-11T06:29:59.735Z,14.35
2018-08-11T06:31:09.311Z,14.27
2018-08-11T06:32:19.585Z,14.39
2018-08-11T06:33:28.963Z,14.42
2018-08-11T06:34:38.271Z,14.45
2018-08-11T06:35:47.574Z,14.47
2018-08-11T06:36:57.166Z,14.58
2018-08-11T06:38:07.023Z,14.54
2018-08-11T06:39:16.598Z,14.55
2018-08-11T06:40:26.348Z,14.52
2018-08-11T06:41:36.368Z,14.52
2018-08-11T06:42:45.939Z,14.52
2018-08-11T06:43:55.246Z,14.57
2018-08-11T06:45:04.817Z,14.58
2018-08-11T06:46:14.956Z,14.64
2018-08-11T06:47:24.266Z,14.6
2018-08-11T06:48:34.116Z,14.64
2018-08-11T06:49:44.228Z,14.72
2018-08-11T06:50:53.805Z,14.95
2018-08-11T06:52:03.386Z,14.88
2018-08-11T06:53:13.235Z,14.91
2018-08-11T06:54:22.865Z,14.75
2018-08-11T06:55:33.108Z,14.78
2018-08-11T06:56:43.567Z,14.84
2018-08-11T06:57:53.143Z,14.89
2018-08-11T06:59:02.711Z,14.83
2018-08-11T07:00:11.474Z,14.99
2018-08-11T07:01:21.315Z,14.96
2018-08-11T07:02:30.349Z,14.96
2018-08-11T07:03:39.923Z,14.91
2018-08-11T07:04:49.493Z,14.95
2018-08-11T07:05:59.063Z,14.96
2018-08-11T07:07:08.895Z,15.01
2018-08-11T07:08:18.477Z,15.03
2018-08-11T07:09:27.801Z,15.07
2018-08-11T07:10:37.991Z,15.16
2018-08-11T07:11:48.121Z,15.2
2018-08-11T07:12:57.424Z,15.36
2018-08-11T07:14:06.730Z,15.23
2018-08-11T07:15:16.725Z,15.34
2018-08-11T07:16:27.029Z,15.38
2018-08-11T07:17:37.142Z,15.35
2018-08-11T07:18:47.258Z,15.35
2018-08-11T07:19:56.828Z,15.41
2018-08-11T07:21:06.131Z,15.5
2018-08-11T07:22:15.997Z,15.49
2018-08-11T07:23:25.573Z,15.62
2018-08-11T07:24:35.143Z,15.67
2018-08-11T07:25:44.454Z,15.68
2018-08-11T07:26:54.042Z,15.83
2018-08-11T07:28:03.625Z,15.82
2018-08-11T07:29:12.670Z,15.89
2018-08-11T07:30:22.510Z,16
2018-08-11T07:31:32.447Z,15.97
2018-08-11T07:32:42.084Z,15.97
2018-08-11T07:33:51.665Z,15.94
2018-08-11T07:35:01.520Z,15.94
2018-08-11T07:36:11.060Z,15.92
2018-08-11T07:37:20.751Z,15.92
2018-08-11T07:38:30.858Z,15.94
2018-08-11T07:39:40.772Z,16.05
2018-08-11T07:40:50.389Z,16.01
2018-08-11T07:41:59.692Z,16.09
2018-08-11T07:43:08.722Z,16.17
2018-08-11T07:44:18.381Z,16.21
2018-08-11T07:45:28.487Z,16.24
2018-08-11T07:46:37.795Z,16.2
2018-08-11T07:47:47.739Z,16.33
2018-08-11T07:48:57.593Z,16.38
2018-08-11T07:50:06.947Z,16.45
2018-08-11T07:51:16.863Z,16.53
2018-08-11T07:52:26.441Z,16.43
2018-08-11T07:53:36.292Z,16.46
2018-08-11T07:54:45.335Z,16.7
2018-08-11T07:55:55.635Z,16.64
2018-08-11T07:57:05.576Z,16.75
2018-08-11T07:58:15.156Z,16.73
2018-08-11T07:59:24.467Z,16.66
2018-08-11T08:00:34.308Z,16.64
2018-08-11T08:01:44.202Z,16.71
2018-08-11T08:02:53.507Z,16.78
2018-08-11T08:04:02.809Z,16.89
2018-08-11T08:05:12.397Z,16.88
2018-08-11T08:06:21.976Z,16.88
2018-08-11T08:07:31.555Z,16.91
2018-08-11T08:08:40.870Z,16.97
2018-08-11T08:09:50.714Z,16.93
2018-08-11T08:11:00.290Z,16.89
2018-08-11T08:12:09.868Z,16.98
2018-08-11T08:13:19.713Z,17.04
2018-08-11T08:14:29.300Z,17.04
2018-08-11T08:15:39.144Z,17.14
2018-08-11T08:16:48.719Z,17.06
2018-08-11T08:17:58.023Z,17.01
2018-08-11T08:19:07.331Z,17.12
2018-08-11T08:20:16.640Z,17.11
2018-08-11T08:21:26.220Z,17.12
2018-08-11T08:22:36.074Z,17.08
2018-08-11T08:23:45.637Z,17.18
2018-08-11T08:24:54.943Z,17.08
2018-08-11T08:26:04.429Z,17.19
2018-08-11T08:27:14.797Z,17.22
2018-08-11T08:28:24.641Z,17.15
2018-08-11T08:29:34.753Z,17.18
2018-08-11T08:30:44.606Z,17.08
2018-08-11T08:31:54.182Z,17.22
2018-08-11T08:33:04.028Z,17.21
2018-08-11T08:34:14.148Z,17.31
2018-08-11T08:35:23.451Z,17.18
2018-08-11T08:36:32.765Z,17.23
2018-08-11T08:37:42.343Z,17.33
2018-08-11T08:38:51.916Z,17.4
2018-08-11T08:40:01.494Z,17.46
2018-08-11T08:41:10.539Z,17.51
2018-08-11T08:42:20.453Z,17.54
2018-08-11T08:43:30.300Z,17.58
2018-08-11T08:44:39.877Z,17.64
2018-08-11T08:45:49.183Z,17.79
2018-08-11T08:46:59.299Z,17.74
2018-08-11T08:48:08.606Z,17.78
2018-08-11T08:49:18.180Z,17.77
2018-08-11T08:50:27.486Z,17.75
2018-08-11T08:51:37.336Z,17.82
2018-08-11T08:52:47.219Z,17.75
2018-08-11T08:53:57.065Z,17.78
2018-08-11T08:55:06.368Z,17.89
2018-08-11T08:56:15.673Z,17.99
2018-08-11T08:57:25.255Z,18.15
2018-08-11T08:58:34.834Z,18.23
2018-08-11T08:59:44.157Z,18.2
2018-08-11T09:00:53.735Z,18.23
2018-08-11T09:02:03.310Z,18.21
2018-08-11T09:03:13.419Z,18.18
2018-08-11T09:04:22.453Z,18.37
2018-08-11T09:05:32.028Z,18.36
2018-08-11T09:06:41.606Z,18.26
2018-08-11T09:07:50.916Z,18.14
2018-08-11T09:09:00.801Z,18.23
2018-08-11T09:10:10.648Z,18.11
2018-08-11T09:11:20.013Z,18.2
2018-08-11T09:12:29.872Z,18.32
2018-08-11T09:13:39.995Z,18.3
2018-08-11T09:14:49.847Z,18.23
2018-08-11T09:15:59.181Z,18.12
2018-08-11T09:17:08.815Z,18.17
2018-08-11T09:18:18.406Z,18.18
2018-08-11T09:19:28.065Z,18.07
2018-08-11T09:20:37.798Z,18.08
2018-08-11T09:21:47.641Z,18.05
2018-08-11T09:22:58.284Z,18.11
2018-08-11T09:24:07.865Z,18.08
2018-08-11T09:25:17.169Z,18.15
2018-08-11T09:26:26.742Z,18.2
2018-08-11T09:27:36.053Z,18.25
2018-08-11T09:28:45.899Z,18.21
2018-08-11T09:29:55.743Z,18.29
2018-08-11T09:31:05.055Z,18.32
2018-08-11T09:32:14.090Z,18.3
2018-08-11T09:33:23.940Z,18.41
2018-08-11T09:34:34.099Z,18.42
2018-08-11T09:35:43.958Z,18.44
2018-08-11T09:36:53.800Z,18.45
2018-08-11T09:38:03.373Z,18.44
2018-08-11T09:39:13.493Z,18.51
2018-08-11T09:40:22.798Z,18.54
2018-08-11T09:41:31.836Z,18.42
2018-08-11T09:42:41.687Z,18.57
2018-08-11T09:43:51.536Z,18.5
2018-08-11T09:45:02.845Z,18.51
2018-08-11T09:46:12.313Z,18.5
2018-08-11T09:47:21.885Z,18.55
2018-08-11T09:48:31.454Z,18.58
2018-08-11T09:49:40.811Z,18.65
2018-08-11T09:50:50.409Z,18.67
2018-08-11T09:51:59.766Z,18.75
2018-08-11T09:53:09.076Z,18.81
2018-08-11T09:54:18.397Z,18.85
2018-08-11T09:55:27.968Z,18.85
2018-08-11T09:56:38.091Z,18.85
2018-08-11T09:57:47.667Z,18.92
2018-08-11T09:58:57.391Z,18.91
2018-08-11T10:00:06.976Z,18.85
2018-08-11T10:01:17.092Z,18.84
2018-08-11T10:02:26.402Z,18.98
2018-08-11T10:03:35.972Z,18.88
2018-08-11T10:04:45.820Z,18.91
2018-08-11T10:05:55.668Z,18.99
2018-08-11T10:07:05.523Z,18.95
2018-08-11T10:08:15.364Z,19.07
2018-08-11T10:09:25.254Z,19.1
2018-08-11T10:10:35.592Z,19.1
2018-08-11T10:11:45.354Z,19.08
2018-08-11T10:12:54.658Z,19.04
2018-08-11T10:14:03.982Z,19.04
2018-08-11T10:15:13.559Z,19.02
2018-08-11T10:16:23.132Z,19.11
2018-08-11T10:17:33.251Z,18.94
2018-08-11T10:18:43.002Z,18.95
2018-08-11T10:19:52.850Z,18.92
2018-08-11T10:21:02.155Z,18.95
2018-08-11T10:22:11.741Z,18.94
2018-08-11T10:23:21.610Z,19.08
2018-08-11T10:24:31.462Z,19.06
2018-08-11T10:25:41.041Z,19.14
2018-08-11T10:26:50.894Z,19.25
2018-08-11T10:28:00.735Z,19.19
2018-08-11T10:29:10.043Z,19.26
2018-08-11T10:30:19.620Z,19.25
2018-08-11T10:31:29.204Z,19.39
2018-08-11T10:32:39.098Z,19.47
2018-08-11T10:33:48.673Z,19.71
2018-08-11T10:34:57.979Z,19.83
2018-08-11T10:36:07.288Z,19.86
2018-08-11T10:37:16.592Z,20.02
2018-08-11T10:38:25.899Z,19.91
2018-08-11T10:39:35.479Z,19.94
2018-08-11T10:40:44.799Z,19.95
2018-08-11T10:41:54.100Z,19.81
2018-08-11T10:43:03.131Z,19.78
2018-08-11T10:44:12.709Z,19.78
2018-08-11T10:45:22.829Z,19.74
2018-08-11T10:46:32.670Z,19.68
2018-08-11T10:47:42.518Z,19.63
2018-08-11T10:48:51.828Z,19.56
2018-08-11T10:50:01.697Z,19.58
2018-08-11T10:51:11.002Z,19.63
2018-08-11T10:52:20.307Z,19.74
2018-08-11T10:53:29.881Z,19.76
2018-08-11T10:54:39.462Z,19.74
2018-08-11T10:55:48.813Z,19.73
2018-08-11T10:56:58.456Z,19.8
2018-08-11T10:58:08.295Z,19.8
2018-08-11T10:59:17.874Z,19.73
2018-08-11T11:00:27.473Z,19.65
2018-08-11T11:01:36.785Z,19.71
2018-08-11T11:02:46.632Z,19.71
2018-08-11T11:03:55.941Z,19.54
2018-08-11T11:05:05.526Z,19.61
2018-08-11T11:06:15.100Z,19.74
2018-08-11T11:07:24.672Z,19.68
2018-08-11T11:08:34.784Z,19.68
2018-08-11T11:09:44.911Z,19.76
2018-08-11T11:10:54.765Z,19.73
2018-08-11T11:12:03.533Z,19.71
2018-08-11T11:13:13.434Z,19.59
2018-08-11T11:14:23.361Z,19.51
2018-08-11T11:15:33.147Z,19.13
2018-08-11T11:16:42.733Z,19.04
2018-08-11T11:17:52.313Z,18.87
2018-08-11T11:19:02.163Z,18.7
2018-08-11T11:20:12.287Z,18.58
2018-08-11T11:21:22.409Z,18.21
2018-08-11T11:22:32.247Z,17.95
2018-08-11T11:23:42.090Z,17.77
2018-08-11T11:24:51.124Z,17.14
2018-08-11T11:26:00.703Z,17.25
2018-08-11T11:27:09.739Z,17.43
2018-08-11T11:28:19.311Z,17.16
2018-08-11T11:29:28.892Z,17.12
2018-08-11T11:30:39.006Z,17.16
2018-08-11T11:31:48.855Z,17.22
2018-08-11T11:32:58.428Z,17.06
2018-08-11T11:34:08.266Z,17.15
2018-08-11T11:35:17.843Z,17.08
2018-08-11T11:36:27.695Z,17.16
2018-08-11T11:37:37.272Z,17.38
2018-08-11T11:38:46.845Z,17.3
2018-08-11T11:39:56.155Z,17.28
2018-08-11T11:41:06.273Z,17.28
2018-08-11T11:42:16.389Z,17.33
2018-08-11T11:43:26.660Z,17.44
2018-08-11T11:44:37.049Z,17.56
2018-08-11T11:45:46.913Z,17.74
2018-08-11T11:46:57.025Z,17.9
2018-08-11T11:48:06.383Z,18.05
2018-08-11T11:49:15.689Z,18.05
2018-08-11T11:50:25.529Z,18.1
2018-08-11T11:51:35.372Z,18.02
2018-08-11T11:52:44.942Z,18.03
2018-08-11T11:53:53.974Z,17.96
2018-08-11T11:55:03.542Z,17.96
2018-08-11T11:56:13.111Z,17.74
2018-08-11T11:57:22.962Z,17.66
2018-08-11T11:58:32.544Z,17.51
2018-08-11T11:59:42.648Z,17.31
2018-08-11T12:00:52.549Z,17.38
2018-08-11T12:02:01.997Z,17.66
2018-08-11T12:03:11.584Z,17.82
2018-08-11T12:04:21.156Z,17.75
2018-08-11T12:05:30.777Z,17.52
2018-08-11T12:06:40.084Z,17.55
2018-08-11T12:07:49.659Z,17.64
2018-08-11T12:08:59.232Z,17.62
2018-08-11T12:10:08.807Z,17.56
2018-08-11T12:11:18.378Z,17.49
2018-08-11T12:12:28.228Z,17.58
2018-08-11T12:13:37.804Z,17.64
2018-08-11T12:14:47.106Z,17.63
2018-08-11T12:15:56.681Z,17.66
2018-08-11T12:17:06.524Z,17.66
2018-08-11T12:18:16.097Z,17.58
2018-08-11T12:19:25.802Z,17.63
2018-08-11T12:20:35.967Z,17.66
2018-08-11T12:21:45.540Z,17.68
2018-08-11T12:22:55.118Z,17.66
2018-08-11T12:24:04.969Z,17.77
2018-08-11T12:25:14.541Z,17.64
2018-08-11T12:26:23.848Z,17.54
2018-08-11T12:27:33.966Z,17.43
2018-08-11T12:28:44.081Z,16.91
2018-08-11T12:29:53.388Z,16.71
2018-08-11T12:31:03.056Z,16.35
2018-08-11T12:32:12.330Z,16
2018-08-11T12:33:22.175Z,16
2018-08-11T12:34:32.013Z,15.76
2018-08-11T12:35:42.137Z,15.67
2018-08-11T12:36:51.981Z,15.57
2018-08-11T12:38:02.048Z,15.57
2018-08-11T12:39:11.384Z,15.54
2018-08-11T12:40:20.959Z,15.35
2018-08-11T12:41:30.798Z,15.43
2018-08-11T12:42:40.641Z,15.46
2018-08-11T12:43:50.795Z,15.49
2018-08-11T12:45:00.368Z,15.54
2018-08-11T12:46:09.403Z,15.82
2018-08-11T12:47:18.976Z,15.54
2018-08-11T12:48:28.545Z,15.51
2018-08-11T12:49:38.133Z,15.65
2018-08-11T12:50:47.969Z,15.65
2018-08-11T12:51:57.562Z,15.86
2018-08-11T12:53:07.402Z,15.86
2018-08-11T12:54:16.976Z,15.72
2018-08-11T12:55:26.549Z,15.64
2018-08-11T12:56:36.126Z,15.67
2018-08-11T12:57:45.756Z,15.62
2018-08-11T12:58:55.870Z,15.69
2018-08-11T13:00:05.713Z,15.83
2018-08-11T13:01:15.279Z,15.89
2018-08-11T13:02:24.861Z,16.11
2018-08-11T13:03:34.437Z,16.38
2018-08-11T13:04:44.013Z,16.5
2018-08-11T13:05:53.859Z,16.75
2018-08-11T13:07:03.844Z,16.83
2018-08-11T13:08:13.911Z,16.93
2018-08-11T13:09:23.534Z,16.97
2018-08-11T13:10:33.131Z,17.16
2018-08-11T13:11:42.986Z,17.41
2018-08-11T13:12:52.560Z,17.63
2018-08-11T13:14:01.874Z,17.77
2018-08-11T13:15:11.727Z,17.95
2018-08-11T13:16:21.575Z,18.05
2018-08-11T13:17:30.888Z,18.17
2018-08-11T13:18:40.730Z,18.12
2018-08-11T13:19:50.582Z,18.41
2018-08-11T13:21:00.481Z,18.6
2018-08-11T13:22:10.070Z,18.81
2018-08-11T13:23:19.920Z,18.85
2018-08-11T13:24:29.504Z,19.07
2018-08-11T13:25:39.623Z,19.1
2018-08-11T13:26:49.474Z,19.19
2018-08-11T13:27:58.793Z,19.4
2018-08-11T13:29:08.389Z,19.41
2018-08-11T13:30:17.432Z,19.55
2018-08-11T13:31:27.053Z,19.61
2018-08-11T13:32:36.325Z,19.77
2018-08-11T13:33:45.912Z,20.01
2018-08-11T13:34:55.495Z,19.95
2018-08-11T13:36:05.613Z,19.86
2018-08-11T13:37:15.201Z,19.8
2018-08-11T13:38:24.242Z,19.63
2018-08-11T13:39:34.171Z,19.41
2018-08-11T13:40:44.021Z,19.19
2018-08-11T13:41:54.199Z,19
2018-08-11T13:43:03.510Z,18.67
2018-08-11T13:44:13.370Z,18.47
2018-08-11T13:45:23.223Z,18.2
2018-08-11T13:46:32.838Z,17.9
2018-08-11T13:47:42.940Z,17.59
2018-08-11T13:48:52.788Z,17.34
2018-08-11T13:50:02.097Z,17.15
2018-08-11T13:51:11.947Z,16.91
2018-08-11T13:52:21.795Z,16.81
2018-08-11T13:53:31.647Z,16.6
2018-08-11T13:54:41.488Z,16.39
2018-08-11T13:55:51.333Z,16.33
2018-08-11T13:57:00.907Z,16.08
2018-08-11T13:58:10.208Z,16.15
2018-08-11T13:59:20.327Z,16.23
2018-08-11T14:00:29.899Z,16.01
2018-08-11T14:01:39.829Z,16.08
2018-08-11T14:02:49.403Z,16.05
2018-08-11T14:03:59.245Z,16.05
2018-08-11T14:05:08.549Z,16.24
2018-08-11T14:06:18.141Z,16.08
2018-08-11T14:07:28.376Z,16.23
2018-08-11T14:08:38.445Z,16.24
2018-08-11T14:09:48.014Z,16.23
2018-08-11T14:10:57.880Z,16.35
2018-08-11T14:12:07.725Z,16.35
2018-08-11T14:13:17.572Z,16.43
2018-08-11T14:14:27.426Z,16.45
2018-08-11T14:15:36.730Z,16.61
2018-08-11T14:16:46.845Z,16.64
2018-08-11T14:17:56.694Z,16.73
2018-08-11T14:19:06.862Z,16.73
2018-08-11T14:20:16.741Z,16.79
2018-08-11T14:21:26.845Z,16.98
2018-08-11T14:22:36.474Z,16.89
2018-08-11T14:23:46.319Z,16.96
2018-08-11T14:24:56.160Z,16.94
2018-08-11T14:26:05.744Z,17.03
2018-08-11T14:27:14.783Z,17.08
2018-08-11T14:28:24.352Z,17.21
2018-08-11T14:29:34.192Z,17.4
2018-08-11T14:30:44.051Z,17.62
2018-08-11T14:31:54.193Z,17.55
2018-08-11T14:33:04.307Z,17.49
2018-08-11T14:34:14.446Z,17.68
2018-08-11T14:35:24.030Z,17.54
2018-08-11T14:36:33.875Z,17.68
2018-08-11T14:37:43.445Z,17.55
2018-08-11T14:38:53.730Z,17.64
2018-08-11T14:40:03.585Z,17.55
2018-08-11T14:41:13.161Z,17.63
2018-08-11T14:42:22.736Z,17.71
2018-08-11T14:43:32.032Z,17.63
2018-08-11T14:44:42.086Z,17.7
2018-08-11T14:45:51.937Z,17.7
2018-08-11T14:47:01.521Z,17.63
2018-08-11T14:48:11.376Z,17.78
2018-08-11T14:49:21.224Z,17.68
2018-08-11T14:50:31.167Z,17.77
2018-08-11T14:51:41.609Z,17.75
2018-08-11T14:52:51.188Z,17.75
2018-08-11T14:54:00.489Z,17.74
2018-08-11T14:55:10.067Z,17.81
2018-08-11T14:56:20.156Z,17.89
2018-08-11T14:57:29.656Z,17.92
2018-08-11T14:58:39.505Z,17.96
2018-08-11T14:59:49.617Z,18.08
2018-08-11T15:00:59.191Z,18.26